In Rescue
 
Open Full Screen Window  High Contrast Mode
Wind Gusting 00 knots
07
March 29, 2020 6:36 PM CDT
Weather Information
Wind Direction
  340 °
Wind Speed
  07 kt (8 mph)
Wind Gust
  00 kt (0 mph)
Altimeter
29.82 in
Visibility
10 SM
Temperature
04° C
39° F
Dewpoint
-04° C
25° F
Humidity
56%
1hr Rain Fall
00.00 in.
24hr Rain Fall
00.07 in.
Sky Condition
Overcast @ 5,500 ft
Scattered @ 4,100 ft
VFR

METAR KCKC 292336Z AUTO 34007KT 10SM SCT041 OVC055 04/M04 A2982 RMK AO2

FAA Disclaimer: The data displayed is for advisory purposes only and is not to be used for flight planning or operations.